Time;durP1;ratioP1;P1;durP2;ratioP2;P2;SDS_P1;SDS_P2;PMS_P1;PMS_P2;Temp;Humidity;BMP_temperature;BMP_pressure;BME280_temperature;BME280_humidity;BME280_pressure;Samples;Min_cycle;Max_cycle;Signal;HPM_P1;HPM_P2
2024/04/13 00:04:47;;;;;;;8.45;3.25;;;;;;;;;;22406219;26;20376;-46
2024/04/13 00:14:52;;;;;;;5.20;2.30;;;;;;;;;;22411905;26;20130;-46
2024/04/13 00:24:53;;;;;;;11.10;3.60;;;;;;;;;;22411793;26;20011;-46
2024/04/13 00:34:55;;;;;;;7.93;2.42;;;;;;;;;;22390084;26;20061;-46
2024/04/13 00:45:04;;;;;;;5.32;2.53;;;;;;;;;;22407172;26;20015;-46
2024/04/13 00:55:05;;;;;;;6.75;2.85;;;;;;;;;;22405950;26;20043;-46
2024/04/13 01:17:04;;;;;;;7.60;2.88;;;;;;;;;;22405437;26;20430;-45
2024/04/13 01:27:07;;;;;;;7.03;2.85;;;;;;;;;;22408180;26;20358;-46
2024/04/13 01:37:10;;;;;;;7.03;2.00;;;;;;;;;;22385816;26;20031;-46
2024/04/13 01:47:11;;;;;;;8.52;2.90;;;;;;;;;;22410112;26;20000;-46
2024/04/13 01:57:13;;;;;;;5.28;2.28;;;;;;;;;;22407741;26;20320;-46
2024/04/13 02:07:15;;;;;;;6.90;3.03;;;;;;;;;;22405929;26;20462;-46
2024/04/13 02:17:16;;;;;;;6.10;2.45;;;;;;;;;;22405148;26;20425;-45
2024/04/13 02:27:18;;;;;;;5.03;2.30;;;;;;;;;;22405998;26;20019;-44
2024/04/13 02:37:19;;;;;;;8.25;2.40;;;;;;;;;;22406034;26;20111;-46
2024/04/13 02:47:21;;;;;;;10.27;2.47;;;;;;;;;;22404551;26;20003;-45
2024/04/13 02:57:24;;;;;;;5.22;2.60;;;;;;;;;;22403012;26;20011;-44
2024/04/13 03:07:26;;;;;;;6.43;2.85;;;;;;;;;;22404023;26;20372;-45
2024/04/13 03:17:29;;;;;;;7.40;2.63;;;;;;;;;;22402850;26;20000;-44
2024/04/13 03:27:32;;;;;;;7.47;2.47;;;;;;;;;;22402642;26;20099;-45
2024/04/13 03:37:36;;;;;;;9.95;3.33;;;;;;;;;;22400820;26;20438;-46
2024/04/13 03:47:37;;;;;;;7.87;2.57;;;;;;;;;;22393649;26;20009;-46
2024/04/13 03:57:39;;;;;;;6.65;2.67;;;;;;;;;;22399650;26;20007;-46
2024/04/13 04:07:41;;;;;;;4.38;2.25;;;;;;;;;;22401057;26;20077;-47
2024/04/13 04:17:42;;;;;;;6.93;2.45;;;;;;;;;;22397438;26;20003;-45
2024/04/13 04:27:44;;;;;;;6.22;2.78;;;;;;;;;;22395238;26;20015;-45
2024/04/13 04:37:46;;;;;;;6.72;2.95;;;;;;;;;;22396404;26;20015;-45
2024/04/13 04:47:49;;;;;;;6.60;2.83;;;;;;;;;;22398927;26;20443;-45
2024/04/13 04:57:51;;;;;;;5.68;2.20;;;;;;;;;;22409977;26;20323;-44
2024/04/13 05:07:52;;;;;;;5.85;2.95;;;;;;;;;;22409716;26;20004;-44
2024/04/13 05:17:55;;;;;;;5.65;2.70;;;;;;;;;;22408985;26;20003;-45
2024/04/13 05:27:56;;;;;;;5.57;2.80;;;;;;;;;;22406039;26;19999;-45
2024/04/13 05:37:58;;;;;;;8.23;2.83;;;;;;;;;;22405590;26;20003;-44
2024/04/13 05:47:59;;;;;;;8.35;2.88;;;;;;;;;;22394960;26;20451;-45
2024/04/13 05:58:03;;;;;;;7.50;3.55;;;;;;;;;;22405715;26;20014;-45
2024/04/13 06:08:04;;;;;;;7.95;2.80;;;;;;;;;;22405504;26;20018;-45
2024/04/13 06:18:06;;;;;;;7.70;3.50;;;;;;;;;;22405091;26;20000;-45
2024/04/13 06:28:08;;;;;;;6.22;3.40;;;;;;;;;;22405639;26;20014;-45
2024/04/13 06:38:09;;;;;;;8.02;3.70;;;;;;;;;;22404354;26;20599;-45
2024/04/13 06:48:11;;;;;;;11.05;3.53;;;;;;;;;;22397928;26;20008;-44
2024/04/13 06:58:12;;;;;;;11.88;4.15;;;;;;;;;;22404394;26;20003;-46
2024/04/13 07:08:14;;;;;;;7.35;3.95;;;;;;;;;;22372152;26;20000;-45
2024/04/13 07:18:15;;;;;;;11.00;4.07;;;;;;;;;;22402389;26;20035;-47
2024/04/13 07:28:17;;;;;;;8.15;4.53;;;;;;;;;;22403552;26;20014;-48
2024/04/13 07:38:18;;;;;;;8.90;4.35;;;;;;;;;;22400415;26;20003;-46
2024/04/13 07:48:21;;;;;;;6.90;3.65;;;;;;;;;;22377934;26;20022;-47
2024/04/13 07:58:23;;;;;;;11.70;3.50;;;;;;;;;;22399211;26;20298;-46
2024/04/13 08:08:25;;;;;;;6.65;3.05;;;;;;;;;;22398463;26;20023;-47
2024/04/13 08:18:27;;;;;;;10.75;3.90;;;;;;;;;;22397266;26;20015;-48
2024/04/13 08:28:29;;;;;;;10.52;3.65;;;;;;;;;;22407405;26;20039;-46
2024/04/13 08:38:32;;;;;;;7.72;2.97;;;;;;;;;;22411234;26;20007;-47
2024/04/13 08:48:33;;;;;;;5.43;1.92;;;;;;;;;;22409703;26;20015;-47
2024/04/13 08:58:37;;;;;;;10.68;2.40;;;;;;;;;;22395623;26;20109;-49
2024/04/13 09:08:40;;;;;;;4.80;1.40;;;;;;;;;;22405543;26;20010;-51
2024/04/13 09:18:42;;;;;;;3.77;2.07;;;;;;;;;;22409198;26;20006;-51
2024/04/13 09:28:45;;;;;;;9.57;1.73;;;;;;;;;;22390838;26;20015;-51
2024/04/13 09:38:46;;;;;;;7.35;1.38;;;;;;;;;;22394163;26;20035;-52
2024/04/13 09:48:48;;;;;;;5.82;1.50;;;;;;;;;;22384723;26;20007;-50
2024/04/13 09:58:51;;;;;;;6.47;1.92;;;;;;;;;;22406209;26;20003;-50
2024/04/13 10:08:53;;;;;;;7.38;1.45;;;;;;;;;;22394673;26;20004;-50
2024/04/13 10:18:54;;;;;;;8.98;2.17;;;;;;;;;;22404276;26;20003;-52
2024/04/13 10:29:03;;;;;;;6.53;1.75;;;;;;;;;;22382140;26;20039;-49
2024/04/13 10:39:05;;;;;;;8.07;1.35;;;;;;;;;;22402419;26;20350;-51
2024/04/13 10:49:07;;;;;;;7.40;1.92;;;;;;;;;;22401122;26;20058;-52
2024/04/13 10:59:09;;;;;;;8.55;1.70;;;;;;;;;;22404534;26;20454;-51
2024/04/13 11:09:14;;;;;;;5.40;1.98;;;;;;;;;;22402222;26;20000;-52
2024/04/13 11:19:16;;;;;;;4.77;1.63;;;;;;;;;;22402294;26;20036;-51
2024/04/13 11:29:19;;;;;;;6.57;1.92;;;;;;;;;;22402387;26;20019;-52
2024/04/13 11:39:22;;;;;;;5.27;2.20;;;;;;;;;;22400664;26;20046;-52
2024/04/13 11:49:25;;;;;;;4.30;1.30;;;;;;;;;;22379670;26;20230;-50
2024/04/13 11:59:26;;;;;;;11.70;1.88;;;;;;;;;;22398395;26;20007;-51
2024/04/13 12:09:28;;;;;;;3.80;1.30;;;;;;;;;;22401459;26;20080;-51
2024/04/13 12:19:29;;;;;;;3.72;1.25;;;;;;;;;;22378464;26;20026;-51
2024/04/13 12:29:31;;;;;;;10.38;2.20;;;;;;;;;;22385398;26;20033;-52
2024/04/13 12:39:33;;;;;;;10.75;2.10;;;;;;;;;;22367236;26;20092;-51
2024/04/13 12:49:35;;;;;;;6.80;1.60;;;;;;;;;;22349094;26;19999;-51
2024/04/13 12:59:37;;;;;;;7.63;1.50;;;;;;;;;;22365072;26;20011;-52
2024/04/13 13:09:39;;;;;;;5.00;1.83;;;;;;;;;;22369015;26;20057;-53
2024/04/13 13:19:41;;;;;;;8.00;2.05;;;;;;;;;;22409156;26;20022;-53
2024/04/13 13:29:44;;;;;;;6.28;1.77;;;;;;;;;;22406262;26;20015;-50
2024/04/13 13:39:45;;;;;;;5.70;1.83;;;;;;;;;;22409370;26;20012;-53
2024/04/13 13:49:47;;;;;;;10.07;2.63;;;;;;;;;;22399468;26;20012;-51
2024/04/13 13:59:49;;;;;;;5.53;1.77;;;;;;;;;;22400084;26;20000;-51
2024/04/13 14:09:50;;;;;;;4.97;1.45;;;;;;;;;;22340666;26;20003;-51
2024/04/13 14:19:53;;;;;;;6.28;1.75;;;;;;;;;;22363298;26;20405;-50
2024/04/13 14:29:55;;;;;;;6.20;1.48;;;;;;;;;;22360992;26;20012;-51
2024/04/13 14:39:56;;;;;;;7.38;1.67;;;;;;;;;;22383889;26;20003;-51
2024/04/13 14:49:58;;;;;;;6.00;1.60;;;;;;;;;;22407087;26;20004;-50
2024/04/13 14:59:59;;;;;;;6.75;1.10;;;;;;;;;;22384359;26;20444;-51
2024/04/13 15:10:01;;;;;;;6.97;2.20;;;;;;;;;;22381860;26;20736;-50
2024/04/13 15:20:04;;;;;;;7.32;1.60;;;;;;;;;;22392100;26;20004;-51
2024/04/13 15:30:08;;;;;;;5.53;1.33;;;;;;;;;;22384789;26;20004;-52
2024/04/13 15:40:10;;;;;;;6.57;1.30;;;;;;;;;;22384998;26;19999;-51
2024/04/13 15:50:11;;;;;;;6.32;1.60;;;;;;;;;;22382537;26;20015;-51
2024/04/13 16:00:19;;;;;;;5.30;1.27;;;;;;;;;;22397551;26;20000;-51
2024/04/13 16:10:21;;;;;;;7.32;1.38;;;;;;;;;;22401966;26;20014;-53
2024/04/13 16:20:23;;;;;;;5.05;1.50;;;;;;;;;;22399027;26;20008;-53
2024/04/13 16:30:24;;;;;;;5.65;1.50;;;;;;;;;;22397330;26;20007;-53
2024/04/13 16:40:27;;;;;;;8.33;1.47;;;;;;;;;;22399332;26;20004;-53
2024/04/13 16:50:29;;;;;;;7.05;1.83;;;;;;;;;;22411686;26;20015;-52
2024/04/13 17:00:30;;;;;;;6.68;2.00;;;;;;;;;;22411272;26;20316;-51
2024/04/13 17:10:32;;;;;;;5.82;1.55;;;;;;;;;;22370948;26;20007;-52
2024/04/13 17:20:33;;;;;;;7.70;1.63;;;;;;;;;;22408847;26;20019;-52
2024/04/13 17:30:35;;;;;;;6.88;1.52;;;;;;;;;;22409605;26;20011;-53
2024/04/13 17:40:38;;;;;;;10.20;1.50;;;;;;;;;;22409019;26;20031;-53
2024/04/13 17:50:40;;;;;;;8.07;2.50;;;;;;;;;;22405359;26;20000;-52
2024/04/13 18:00:41;;;;;;;7.25;1.63;;;;;;;;;;22395338;26;20080;-52
2024/04/13 18:10:43;;;;;;;8.43;1.92;;;;;;;;;;22400000;26;20003;-51
2024/04/13 18:20:46;;;;;;;12.07;2.43;;;;;;;;;;22393501;26;20092;-50
2024/04/13 18:30:47;;;;;;;9.23;3.70;;;;;;;;;;22379005;26;20025;-52
2024/04/13 18:40:54;;;;;;;6.33;1.90;;;;;;;;;;22389746;26;20007;-52
2024/04/13 18:50:57;;;;;;;10.18;2.88;;;;;;;;;;22390197;26;20035;-51
2024/04/13 19:01:05;;;;;;;8.77;2.40;;;;;;;;;;22378331;26;20003;-51
2024/04/13 19:11:07;;;;;;;10.18;2.05;;;;;;;;;;22379725;26;20011;-50
2024/04/13 19:21:09;;;;;;;6.35;1.95;;;;;;;;;;22402487;26;20076;-51
2024/04/13 19:41:59;;;;;;;10.70;4.05;;;;;;;;;;22357801;26;20406;-51
2024/04/13 19:52:01;;;;;;;13.73;3.80;;;;;;;;;;22374523;26;20435;-50
2024/04/13 20:02:04;;;;;;;13.80;6.10;;;;;;;;;;22386057;26;20003;-50
2024/04/13 20:12:05;;;;;;;12.52;4.90;;;;;;;;;;22381782;26;20074;-51
2024/04/13 20:22:10;;;;;;;16.55;7.20;;;;;;;;;;22403465;26;20007;-50
2024/04/13 20:32:12;;;;;;;22.20;11.80;;;;;;;;;;22406774;26;20446;-51
2024/04/13 20:42:14;;;;;;;19.50;10.23;;;;;;;;;;22411112;26;20003;-51
2024/04/13 20:52:17;;;;;;;23.40;8.23;;;;;;;;;;22368498;26;20138;-50
2024/04/13 21:02:18;;;;;;;20.35;10.60;;;;;;;;;;22409671;26;20588;-53
2024/04/13 21:12:20;;;;;;;22.55;6.93;;;;;;;;;;22408447;26;20098;-50
2024/04/13 21:22:24;;;;;;;15.50;6.65;;;;;;;;;;22406130;26;20035;-45
2024/04/13 21:32:27;;;;;;;33.08;15.35;;;;;;;;;;22407527;26;20021;-45
2024/04/13 21:42:28;;;;;;;23.45;7.45;;;;;;;;;;22350767;26;20073;-45
2024/04/13 21:52:30;;;;;;;20.85;7.30;;;;;;;;;;22323696;26;20811;-45
2024/04/13 22:02:34;;;;;;;18.52;8.23;;;;;;;;;;22352597;26;20007;-45
2024/04/13 22:12:36;;;;;;;23.47;9.23;;;;;;;;;;22398276;26;20007;-46
2024/04/13 22:22:38;;;;;;;17.33;6.40;;;;;;;;;;22398266;26;20008;-45
2024/04/13 22:32:39;;;;;;;18.40;7.10;;;;;;;;;;22406698;26;20032;-47
2024/04/13 22:42:40;;;;;;;15.95;5.78;;;;;;;;;;22405125;26;20335;-47
2024/04/13 22:52:42;;;;;;;13.20;5.63;;;;;;;;;;22402634;26;20004;-45
2024/04/13 23:02:44;;;;;;;15.05;6.80;;;;;;;;;;22403337;26;20076;-45
2024/04/13 23:12:45;;;;;;;9.43;3.78;;;;;;;;;;22394756;26;20000;-45
2024/04/13 23:22:47;;;;;;;12.05;3.13;;;;;;;;;;22402169;26;20442;-44
2024/04/13 23:32:49;;;;;;;7.30;2.58;;;;;;;;;;22402470;26;20512;-45
2024/04/13 23:42:50;;;;;;;11.75;2.22;;;;;;;;;;22393169;26;20036;-47
2024/04/13 23:52:52;;;;;;;8.70;2.45;;;;;;;;;;22398160;26;20015;-44
